createdAt,value
2023-03-04T00:03:20.028Z,41.55
2023-03-04T00:07:24.144Z,41.20
2023-03-04T00:11:27.049Z,41.25
2023-03-04T00:15:29.872Z,41.20
2023-03-04T00:19:32.910Z,43.88
2023-03-04T00:23:37.125Z,43.03
2023-03-04T00:27:39.944Z,40.70
2023-03-04T00:31:42.771Z,43.55
2023-03-04T00:35:45.683Z,41.17
2023-03-04T00:39:49.839Z,41.20
2023-03-04T00:43:53.152Z,41.25
2023-03-04T00:47:55.947Z,42.90
2023-03-04T00:51:58.716Z,41.58
2023-03-04T00:56:02.879Z,41.30
2023-03-04T01:00:08.318Z,42.80
2023-03-04T01:04:11.245Z,41.97
2023-03-04T01:08:14.029Z,40.97
2023-03-04T01:12:18.191Z,42.05
2023-03-04T01:16:21.043Z,42.58
2023-03-04T01:20:24.117Z,40.08
2023-03-04T01:24:26.957Z,41.63
2023-03-04T01:28:31.096Z,39.97
2023-03-04T01:32:33.951Z,38.05
2023-03-04T01:36:36.766Z,41.72
2023-03-04T01:40:40.137Z,38.80
2023-03-04T01:44:45.309Z,40.70
2023-03-04T01:48:48.232Z,40.03
2023-03-04T01:52:51.271Z,38.83
2023-03-04T01:56:54.213Z,36.58
2023-03-04T02:00:58.613Z,37.13
2023-03-04T02:05:01.434Z,39.33
2023-03-04T02:09:05.732Z,39.22
2023-03-04T02:13:08.573Z,36.55
2023-03-04T02:17:13.426Z,36.35
2023-03-04T02:21:22.031Z,34.15
2023-03-04T02:25:32.062Z,38.75
2023-03-04T02:29:36.716Z,35.00
2023-03-04T02:33:39.686Z,37.28
2023-03-04T02:37:42.608Z,34.75
2023-03-04T02:41:45.436Z,37.85
2023-03-04T02:45:52.462Z,35.45
2023-03-04T02:53:59.039Z,31.92
2023-03-04T02:58:02.126Z,33.63
2023-03-04T03:02:07.331Z,35.72
2023-03-04T03:06:10.920Z,35.25
2023-03-04T03:10:14.440Z,34.72
2023-03-04T03:14:18.117Z,34.55
2023-03-04T03:18:22.435Z,33.38
2023-03-04T03:22:25.270Z,34.38
2023-03-04T03:26:28.067Z,34.42
2023-03-04T03:30:31.255Z,33.85
2023-03-04T03:34:35.483Z,33.55
2023-03-04T03:38:38.427Z,33.78
2023-03-04T03:42:41.267Z,33.67
2023-03-04T03:46:44.113Z,33.00
2023-03-04T03:50:48.276Z,34.28
2023-03-04T03:54:51.106Z,34.40
2023-03-04T03:58:53.871Z,33.05
2023-03-04T04:02:59.050Z,33.17
2023-03-04T04:07:03.391Z,32.87
2023-03-04T04:11:06.353Z,33.08
2023-03-04T04:15:12.173Z,33.33
2023-03-04T04:19:19.143Z,32.42
2023-03-04T04:23:23.282Z,32.90
2023-03-04T04:27:26.096Z,31.38
2023-03-04T04:31:28.884Z,32.33
2023-03-04T04:35:32.540Z,34.85
2023-03-04T04:39:36.816Z,33.35
2023-03-04T04:43:39.935Z,34.67
2023-03-04T04:47:42.754Z,35.67
2023-03-04T04:51:45.579Z,31.58
2023-03-04T04:55:49.787Z,34.70
2023-03-04T04:59:52.663Z,32.72
2023-03-04T05:03:55.769Z,32.80
2023-03-04T05:07:58.711Z,30.52
2023-03-04T05:12:02.905Z,33.72
2023-03-04T05:16:06.657Z,33.92
2023-03-04T05:20:11.407Z,34.72
2023-03-04T05:24:14.182Z,32.85
2023-03-04T05:28:18.363Z,33.80
2023-03-04T05:32:21.143Z,31.88
2023-03-04T05:36:24.157Z,31.73
2023-03-04T05:40:26.938Z,33.88
2023-03-04T05:44:31.083Z,35.40
2023-03-04T05:48:33.785Z,34.53
2023-03-04T05:52:36.584Z,35.08
2023-03-04T05:56:39.298Z,34.05
2023-03-04T06:00:43.878Z,36.40
2023-03-04T06:04:46.605Z,34.55
2023-03-04T06:08:49.361Z,33.67
2023-03-04T06:12:52.068Z,35.28
2023-03-04T06:16:56.167Z,36.50
2023-03-04T06:20:59.749Z,36.88
2023-03-04T06:25:02.710Z,33.83
2023-03-04T06:29:05.869Z,34.33
2023-03-04T06:33:10.206Z,33.83
2023-03-04T06:37:13.023Z,33.10
2023-03-04T06:41:16.007Z,34.15
2023-03-04T06:45:18.945Z,33.67
2023-03-04T06:49:23.109Z,34.80
2023-03-04T06:53:25.917Z,35.50
2023-03-04T06:57:28.691Z,35.20
2023-03-04T07:01:31.549Z,33.85
2023-03-04T07:05:35.715Z,32.13
2023-03-04T07:09:38.493Z,32.42
2023-03-04T07:13:41.442Z,31.10
2023-03-04T07:17:44.274Z,30.83
2023-03-04T07:21:48.461Z,28.27
2023-03-04T07:25:51.992Z,29.45
2023-03-04T07:29:54.796Z,28.73
2023-03-04T07:33:58.762Z,29.25
2023-03-04T07:38:02.982Z,29.70
2023-03-04T07:42:05.854Z,30.65
2023-03-04T07:46:14.597Z,32.55
2023-03-04T07:50:18.249Z,30.80
2023-03-04T07:54:22.411Z,32.35
2023-03-04T07:58:25.798Z,31.40
2023-03-04T08:02:28.758Z,31.23
2023-03-04T08:06:32.268Z,31.85
2023-03-04T08:10:39.652Z,31.33
2023-03-04T08:14:42.616Z,30.42
2023-03-04T08:18:47.315Z,31.63
2023-03-04T08:22:50.151Z,30.45
2023-03-04T08:26:54.707Z,31.00
2023-03-04T08:30:57.542Z,29.88
2023-03-04T08:35:02.384Z,30.38
2023-03-04T08:39:05.884Z,29.20
2023-03-04T08:43:10.295Z,29.27
2023-03-04T08:47:13.176Z,28.73
2023-03-04T08:51:17.042Z,29.10
2023-03-04T08:55:20.240Z,28.20
2023-03-04T08:59:24.500Z,28.15
2023-03-04T09:03:27.991Z,27.60
2023-03-04T09:07:30.891Z,27.40
2023-03-04T09:11:33.777Z,25.95
2023-03-04T09:15:38.779Z,25.25
2023-03-04T09:23:44.421Z,22.70
2023-03-04T09:27:47.278Z,23.60
2023-03-04T09:31:51.450Z,23.10
2023-03-04T09:35:54.213Z,22.15
2023-03-04T09:39:57.037Z,22.13
2023-03-04T09:43:59.942Z,21.55
2023-03-04T09:48:04.530Z,22.20
2023-03-04T09:52:16.903Z,21.25
2023-03-04T09:56:19.746Z,19.40
2023-03-04T10:00:26.828Z,20.43
2023-03-04T10:04:38.112Z,19.27
2023-03-04T10:08:47.960Z,20.02
2023-03-04T10:12:52.797Z,20.25
2023-03-04T10:17:01.631Z,19.88
2023-03-04T10:21:15.918Z,19.15
2023-03-04T10:25:21.700Z,19.27
2023-03-04T10:29:25.839Z,18.40
2023-03-04T10:33:31.218Z,19.10
2023-03-04T10:37:48.982Z,18.67
2023-03-04T10:42:03.246Z,18.77
2023-03-04T10:46:06.233Z,19.13
2023-03-04T10:50:23.592Z,20.63
2023-03-04T10:54:33.284Z,19.65
2023-03-04T10:58:36.110Z,19.75
2023-03-04T11:02:38.895Z,21.47
2023-03-04T11:06:42.512Z,20.17
2023-03-04T11:14:51.396Z,22.25
2023-03-04T11:18:56.295Z,21.20
2023-03-04T11:23:04.681Z,21.35
2023-03-04T11:27:16.437Z,21.25
2023-03-04T11:31:22.583Z,22.35
2023-03-04T11:35:28.423Z,22.83
2023-03-04T11:39:35.371Z,23.48
2023-03-04T11:43:42.776Z,21.67
2023-03-04T11:47:57.416Z,21.52
2023-03-04T11:52:10.753Z,20.17
2023-03-04T11:56:31.238Z,19.95
2023-03-04T12:00:41.967Z,20.35
2023-03-04T12:05:13.725Z,21.00
2023-03-04T12:09:32.408Z,20.33
2023-03-04T12:13:56.411Z,20.13
2023-03-04T12:18:16.195Z,21.47
2023-03-04T12:22:30.966Z,21.70
2023-03-04T12:26:39.548Z,20.10
2023-03-04T12:31:04.632Z,21.02
2023-03-04T12:35:45.563Z,20.92
2023-03-04T12:39:57.028Z,21.02
2023-03-04T12:44:09.136Z,20.70
2023-03-04T12:48:28.592Z,20.45
2023-03-04T12:52:45.408Z,22.23
2023-03-04T12:56:55.061Z,19.98
2023-03-04T13:01:05.897Z,19.15
2023-03-04T13:05:24.525Z,19.80
2023-03-04T13:09:33.523Z,20.25
2023-03-04T13:13:40.269Z,19.52
2023-03-04T13:17:45.711Z,19.70
2023-03-04T13:21:54.336Z,19.30
2023-03-04T13:26:24.930Z,19.50
2023-03-04T13:31:15.550Z,19.98
2023-03-04T13:35:49.879Z,18.40
2023-03-04T13:40:27.509Z,18.92
2023-03-04T13:44:59.885Z,20.63
2023-03-04T13:49:05.465Z,19.55
2023-03-04T13:53:31.642Z,19.17
2023-03-04T13:57:38.462Z,18.55
2023-03-04T14:01:56.807Z,18.42
2023-03-04T14:06:27.243Z,18.88
2023-03-04T14:10:30.151Z,19.27
2023-03-04T14:14:41.676Z,17.85
2023-03-04T14:18:45.881Z,18.98
2023-03-04T14:22:48.617Z,19.75
2023-03-04T14:26:51.984Z,17.85
2023-03-04T14:30:57.200Z,18.35
2023-03-04T14:35:04.850Z,17.67
2023-03-04T14:39:08.511Z,17.52
2023-03-04T14:43:16.640Z,17.65
2023-03-04T14:47:24.391Z,16.50
2023-03-04T14:51:37.859Z,16.20
2023-03-04T14:55:40.674Z,15.25
2023-03-04T14:59:43.489Z,15.57
2023-03-04T15:03:56.761Z,15.48
2023-03-04T15:08:03.462Z,15.48
2023-03-04T15:12:09.570Z,14.98
2023-03-04T15:16:15.006Z,14.80
2023-03-04T15:20:25.792Z,15.52
2023-03-04T15:24:29.945Z,14.38
2023-03-04T15:28:35.345Z,14.93
2023-03-04T15:32:38.229Z,14.93
2023-03-04T15:36:41.329Z,14.55
2023-03-04T15:40:45.473Z,14.05
2023-03-04T15:44:48.308Z,15.45
2023-03-04T15:48:51.174Z,14.85
2023-03-04T15:52:57.297Z,15.05
2023-03-04T15:57:01.633Z,14.48
2023-03-04T16:01:04.614Z,14.55
2023-03-04T16:05:08.637Z,14.40
2023-03-04T16:09:14.246Z,13.73
2023-03-04T16:13:20.053Z,14.40
2023-03-04T16:17:22.849Z,13.10
2023-03-04T16:21:26.078Z,13.80
2023-03-04T16:25:30.239Z,14.05
2023-03-04T16:29:34.564Z,14.35
2023-03-04T16:33:37.681Z,14.95
2023-03-04T16:37:41.600Z,14.48
2023-03-04T16:41:44.428Z,16.13
2023-03-04T16:45:48.656Z,15.15
2023-03-04T16:49:51.543Z,14.55
2023-03-04T16:53:56.393Z,13.88
2023-03-04T16:57:59.371Z,14.57
2023-03-04T17:02:03.471Z,13.90
2023-03-04T17:06:06.847Z,13.80
2023-03-04T17:10:11.148Z,14.45
2023-03-04T17:14:13.964Z,14.52
2023-03-04T17:18:18.094Z,15.90
2023-03-04T17:22:20.872Z,14.77
2023-03-04T17:26:24.015Z,14.57
2023-03-04T17:30:26.856Z,15.25
2023-03-04T17:34:30.977Z,15.10
2023-03-04T17:38:34.056Z,16.67
2023-03-04T17:42:37.058Z,15.20
2023-03-04T17:46:40.185Z,15.45
2023-03-04T17:50:50.717Z,13.23
2023-03-04T17:54:53.487Z,15.07
2023-03-04T17:58:56.235Z,14.77
2023-03-04T18:02:59.048Z,14.88
2023-03-04T18:07:03.141Z,15.57
2023-03-04T18:11:06.231Z,14.88
2023-03-04T18:15:09.516Z,16.08
2023-03-04T18:19:12.295Z,15.55
2023-03-04T18:23:16.523Z,15.38
2023-03-04T18:27:19.309Z,15.35
2023-03-04T18:31:23.969Z,15.25
2023-03-04T18:35:27.111Z,16.10
2023-03-04T18:39:31.272Z,16.45
2023-03-04T18:43:34.774Z,16.00
2023-03-04T18:47:38.133Z,15.65
2023-03-04T18:51:40.962Z,16.23
2023-03-04T18:55:45.250Z,16.17
2023-03-04T18:59:51.269Z,15.27
2023-03-04T19:03:55.515Z,14.50
2023-03-04T19:07:58.810Z,16.15
2023-03-04T19:12:02.994Z,16.50
2023-03-04T19:16:06.455Z,15.80
2023-03-04T19:20:10.926Z,16.08
2023-03-04T19:24:13.713Z,16.05
2023-03-04T19:28:17.860Z,16.10
2023-03-04T19:32:20.668Z,16.05
2023-03-04T19:36:25.309Z,15.70
2023-03-04T19:40:28.713Z,15.85
2023-03-04T19:44:32.872Z,15.27
2023-03-04T19:48:36.358Z,16.90
2023-03-04T19:52:39.376Z,16.23
2023-03-04T19:56:42.192Z,18.95
2023-03-04T20:00:47.149Z,18.40
2023-03-04T20:04:50.076Z,19.48
2023-03-04T20:08:52.833Z,19.15
2023-03-04T20:12:55.756Z,18.42
2023-03-04T20:17:00.942Z,21.02
2023-03-04T20:21:04.037Z,17.38
2023-03-04T20:25:07.310Z,19.15
2023-03-04T20:29:10.098Z,17.30
2023-03-04T20:33:14.235Z,18.52
2023-03-04T20:37:17.206Z,19.58
2023-03-04T20:41:20.381Z,18.15
2023-03-04T20:45:24.727Z,18.27
2023-03-04T20:49:29.827Z,20.30
2023-03-04T20:53:32.610Z,18.25
2023-03-04T20:57:35.397Z,18.75
2023-03-04T21:01:41.407Z,19.08
2023-03-04T21:05:45.612Z,19.67
2023-03-04T21:09:48.401Z,19.00
2023-03-04T21:13:56.393Z,20.08
2023-03-04T21:17:59.151Z,20.55
2023-03-04T21:22:04.551Z,21.50
2023-03-04T21:26:07.435Z,19.75
2023-03-04T21:30:11.957Z,19.85
2023-03-04T21:34:18.152Z,20.58
2023-03-04T21:38:22.259Z,18.27
2023-03-04T21:42:25.090Z,21.38
2023-03-04T21:46:28.236Z,19.48
2023-03-04T21:50:31.107Z,21.65
2023-03-04T21:54:35.260Z,20.05
2023-03-04T21:58:41.464Z,19.92
2023-03-04T22:02:44.252Z,20.77
2023-03-04T22:06:47.073Z,20.20
2023-03-04T22:10:51.232Z,22.83
2023-03-04T22:14:54.026Z,20.95
2023-03-04T22:18:56.802Z,20.90
2023-03-04T22:22:59.706Z,21.55
2023-03-04T22:27:03.870Z,20.58
2023-03-04T22:31:14.553Z,20.65
2023-03-04T22:35:17.898Z,22.67
2023-03-04T22:39:20.721Z,21.52
2023-03-04T22:43:24.932Z,22.67
2023-03-04T22:47:27.991Z,20.27
2023-03-04T22:51:30.917Z,20.63
2023-03-04T22:55:33.754Z,20.52
2023-03-04T22:59:37.927Z,21.05
2023-03-04T23:03:41.991Z,20.15
2023-03-04T23:07:44.862Z,21.30
2023-03-04T23:11:47.702Z,22.52
2023-03-04T23:15:52.188Z,22.38
2023-03-04T23:19:55.085Z,23.00
2023-03-04T23:24:00.560Z,20.73
2023-03-04T23:28:03.804Z,21.70
2023-03-04T23:32:08.398Z,21.35
2023-03-04T23:36:14.356Z,21.25
2023-03-04T23:40:19.005Z,23.05
2023-03-04T23:44:21.800Z,23.40
2023-03-04T23:48:26.072Z,22.40
2023-03-04T23:52:28.851Z,21.10
2023-03-04T23:56:32.338Z,21.60
